Time;durP1;ratioP1;P1;durP2;ratioP2;P2;SDS_P1;SDS_P2;PMS_P1;PMS_P2;Temp;Humidity;BMP_temperature;BMP_pressure;BME280_temperature;BME280_humidity;BME280_pressure;Samples;Min_cycle;Max_cycle;Signal;HPM_P1;HPM_P2
2022/05/22 00:01:53;;;;;;;16.92;4.72;;;;;;;;;;4929916;29;20028;-72
2022/05/22 00:04:19;;;;;;;19.23;5.20;;;;;;;;;;4930290;29;20098;-71
2022/05/22 00:06:45;;;;;;;18.27;4.82;;;;;;;;;;4928539;29;20047;-71
2022/05/22 00:09:11;;;;;;;15.55;4.50;;;;;;;;;;4930033;29;20031;-72
2022/05/22 00:11:38;;;;;;;15.43;4.40;;;;;;;;;;4934482;29;20055;-71
2022/05/22 00:14:04;;;;;;;17.67;4.45;;;;;;;;;;4932647;29;20118;-71
2022/05/22 00:16:36;;;;;;;14.38;4.93;;;;;;;;;;4931244;29;20032;-71
2022/05/22 00:19:05;;;;;;;13.35;4.65;;;;;;;;;;4930362;29;20501;-71
2022/05/22 00:21:31;;;;;;;15.85;5.70;;;;;;;;;;4930618;29;20064;-71
2022/05/22 00:23:57;;;;;;;19.00;6.38;;;;;;;;;;4930691;29;20048;-71
2022/05/22 00:26:23;;;;;;;18.95;6.05;;;;;;;;;;4931192;29;20112;-71
2022/05/22 00:28:50;;;;;;;17.88;5.50;;;;;;;;;;4926833;29;20043;-71
2022/05/22 00:31:16;;;;;;;13.30;4.45;;;;;;;;;;4933800;29;20063;-71
2022/05/22 00:33:43;;;;;;;14.63;4.68;;;;;;;;;;4928843;29;20082;-71
2022/05/22 00:36:09;;;;;;;18.52;4.85;;;;;;;;;;4927053;29;20042;-73
2022/05/22 00:38:35;;;;;;;18.58;5.60;;;;;;;;;;4913037;29;20035;-71
2022/05/22 00:41:02;;;;;;;15.52;5.30;;;;;;;;;;4933656;29;20031;-71
2022/05/22 00:43:28;;;;;;;17.92;6.60;;;;;;;;;;4930910;29;20031;-72
2022/05/22 00:45:54;;;;;;;17.98;6.80;;;;;;;;;;4927390;29;20036;-72
2022/05/22 00:48:20;;;;;;;16.45;5.32;;;;;;;;;;4931520;29;20036;-71
2022/05/22 00:50:46;;;;;;;15.20;5.68;;;;;;;;;;4928721;29;20062;-72
2022/05/22 00:53:12;;;;;;;16.10;5.38;;;;;;;;;;4928829;29;20056;-71
2022/05/22 00:55:39;;;;;;;16.40;5.85;;;;;;;;;;4929144;29;20037;-71
2022/05/22 00:58:11;;;;;;;15.40;7.00;;;;;;;;;;4928092;29;20028;-72
2022/05/22 01:00:38;;;;;;;18.95;7.78;;;;;;;;;;4931534;29;20031;-72
2022/05/22 01:05:51;;;;;;;17.35;6.78;;;;;;;;;;4932081;29;20043;-72
2022/05/22 01:08:18;;;;;;;14.38;6.72;;;;;;;;;;4928320;29;20031;-72
2022/05/22 01:10:44;;;;;;;16.08;6.50;;;;;;;;;;4928855;29;20035;-72
2022/05/22 01:13:11;;;;;;;17.60;6.78;;;;;;;;;;4931272;29;20032;-72
2022/05/22 01:15:38;;;;;;;15.20;6.80;;;;;;;;;;4926961;29;20028;-72
2022/05/22 01:18:04;;;;;;;20.17;7.18;;;;;;;;;;4932003;29;20527;-72
2022/05/22 01:20:30;;;;;;;19.48;7.82;;;;;;;;;;4926770;29;20590;-72
2022/05/22 01:22:56;;;;;;;16.42;6.80;;;;;;;;;;4929211;29;20047;-72
2022/05/22 01:25:23;;;;;;;16.10;6.85;;;;;;;;;;4907527;29;20079;-72
2022/05/22 01:27:49;;;;;;;15.88;5.68;;;;;;;;;;4931347;29;20027;-72
2022/05/22 01:30:24;;;;;;;14.70;6.28;;;;;;;;;;4932178;29;20036;-72
2022/05/22 01:32:50;;;;;;;14.00;6.32;;;;;;;;;;4931440;29;20043;-71
2022/05/22 01:35:20;;;;;;;13.57;6.15;;;;;;;;;;4931041;29;20062;-72
2022/05/22 01:37:46;;;;;;;13.80;6.15;;;;;;;;;;4924258;29;20445;-72
2022/05/22 01:40:13;;;;;;;15.80;6.30;;;;;;;;;;4931418;29;20031;-71
2022/05/22 01:42:39;;;;;;;18.88;6.55;;;;;;;;;;4928325;29;20031;-71
2022/05/22 01:45:06;;;;;;;13.07;5.65;;;;;;;;;;4935499;29;20028;-71
2022/05/22 01:47:33;;;;;;;17.83;7.00;;;;;;;;;;4932409;29;20039;-70
2022/05/22 01:49:59;;;;;;;17.63;6.82;;;;;;;;;;4933891;29;20024;-71
2022/05/22 01:52:25;;;;;;;18.45;7.28;;;;;;;;;;4932049;29;20031;-71
2022/05/22 01:54:51;;;;;;;20.30;6.95;;;;;;;;;;4929188;29;20050;-71
2022/05/22 01:57:18;;;;;;;22.98;7.10;;;;;;;;;;4934308;29;20516;-72
2022/05/22 01:59:44;;;;;;;18.10;6.82;;;;;;;;;;4929745;29;20024;-71
2022/05/22 02:02:10;;;;;;;20.70;8.13;;;;;;;;;;4936335;29;20449;-72
2022/05/22 02:04:36;;;;;;;25.67;11.13;;;;;;;;;;4931625;29;20469;-72
2022/05/22 02:09:48;;;;;;;22.30;10.15;;;;;;;;;;4934095;29;20043;-72
2022/05/22 02:12:14;;;;;;;26.63;11.57;;;;;;;;;;4933594;29;20027;-71
2022/05/22 02:14:40;;;;;;;23.77;10.50;;;;;;;;;;4914377;29;20039;-72
2022/05/22 02:17:06;;;;;;;23.27;9.00;;;;;;;;;;4933310;29;20501;-72
2022/05/22 02:19:32;;;;;;;21.35;9.00;;;;;;;;;;4934095;29;20106;-72
2022/05/22 02:21:58;;;;;;;18.30;8.40;;;;;;;;;;4932766;29;20020;-72
2022/05/22 02:24:24;;;;;;;20.13;7.78;;;;;;;;;;4934824;29;20481;-72
2022/05/22 02:26:50;;;;;;;19.67;8.13;;;;;;;;;;4929758;29;20024;-72
2022/05/22 02:29:17;;;;;;;18.17;7.88;;;;;;;;;;4936855;29;20057;-72
2022/05/22 02:31:43;;;;;;;15.75;7.32;;;;;;;;;;4933869;29;20088;-72
2022/05/22 02:34:09;;;;;;;16.95;6.45;;;;;;;;;;4931991;29;20051;-72
2022/05/22 02:36:35;;;;;;;18.38;7.25;;;;;;;;;;4918271;29;20087;-73
2022/05/22 02:39:01;;;;;;;17.98;7.28;;;;;;;;;;4933357;29;20031;-72
2022/05/22 02:41:27;;;;;;;16.50;6.32;;;;;;;;;;4932685;29;20031;-71
2022/05/22 02:43:54;;;;;;;16.88;6.50;;;;;;;;;;4935862;29;20031;-72
2022/05/22 02:46:21;;;;;;;16.42;6.95;;;;;;;;;;4934140;29;20463;-72
2022/05/22 02:48:47;;;;;;;18.25;6.95;;;;;;;;;;4935115;29;20098;-72
2022/05/22 02:51:14;;;;;;;13.40;6.15;;;;;;;;;;4933116;29;20039;-72
2022/05/22 02:53:41;;;;;;;16.17;6.65;;;;;;;;;;4933503;29;20036;-72
2022/05/22 02:56:08;;;;;;;11.35;6.63;;;;;;;;;;4927684;29;20020;-72
2022/05/22 02:58:34;;;;;;;14.18;7.40;;;;;;;;;;4915609;29;20031;-72
2022/05/22 03:01:00;;;;;;;13.65;6.40;;;;;;;;;;4932252;29;20058;-72
2022/05/22 03:03:26;;;;;;;16.70;6.72;;;;;;;;;;4918717;29;20040;-72
2022/05/22 03:08:37;;;;;;;12.98;6.65;;;;;;;;;;4930862;29;20499;-72
2022/05/22 03:11:04;;;;;;;13.30;6.38;;;;;;;;;;4928668;29;20473;-73
2022/05/22 03:13:30;;;;;;;13.10;5.68;;;;;;;;;;4932418;29;20099;-72
2022/05/22 03:15:56;;;;;;;20.30;6.32;;;;;;;;;;4934435;29;20039;-72
2022/05/22 03:18:22;;;;;;;13.48;6.03;;;;;;;;;;4928974;29;20418;-71
2022/05/22 03:20:48;;;;;;;16.15;5.90;;;;;;;;;;4932976;29;20054;-70
2022/05/22 03:23:14;;;;;;;11.35;5.55;;;;;;;;;;4933757;29;20040;-69
2022/05/22 03:25:41;;;;;;;9.82;5.53;;;;;;;;;;4917962;29;20366;-70
2022/05/22 03:28:07;;;;;;;13.18;5.68;;;;;;;;;;4916700;29;20024;-70
2022/05/22 03:30:33;;;;;;;12.88;5.22;;;;;;;;;;4922031;29;20168;-70
2022/05/22 03:32:59;;;;;;;11.82;5.65;;;;;;;;;;4934520;29;20023;-70
2022/05/22 03:35:25;;;;;;;10.15;5.00;;;;;;;;;;4934059;29;20103;-70
2022/05/22 03:37:51;;;;;;;11.10;6.03;;;;;;;;;;4927031;29;20107;-70
2022/05/22 03:40:17;;;;;;;13.68;6.00;;;;;;;;;;4935214;29;20031;-70
2022/05/22 03:42:44;;;;;;;14.50;6.78;;;;;;;;;;4932984;29;20024;-70
2022/05/22 03:45:10;;;;;;;11.65;6.10;;;;;;;;;;4934699;29;20051;-70
2022/05/22 03:47:38;;;;;;;10.18;6.07;;;;;;;;;;4927580;29;20469;-70
2022/05/22 03:50:06;;;;;;;10.00;6.20;;;;;;;;;;4928280;29;20036;-70
2022/05/22 03:52:42;;;;;;;10.45;5.05;;;;;;;;;;4920376;29;20064;-70
2022/05/22 03:55:10;;;;;;;12.13;4.85;;;;;;;;;;4932774;29;20108;-70
2022/05/22 03:57:37;;;;;;;11.55;5.10;;;;;;;;;;4933114;29;20028;-70
2022/05/22 04:00:04;;;;;;;15.25;5.32;;;;;;;;;;4920995;29;20059;-70
2022/05/22 04:02:30;;;;;;;16.52;5.50;;;;;;;;;;4930277;29;20028;-71
2022/05/22 04:04:57;;;;;;;19.52;5.45;;;;;;;;;;4933587;29;20159;-70
2022/05/22 04:07:23;;;;;;;13.57;5.22;;;;;;;;;;4929071;29;20060;-70
2022/05/22 04:09:49;;;;;;;14.60;4.80;;;;;;;;;;4924376;29;20489;-71
2022/05/22 04:12:15;;;;;;;10.07;3.78;;;;;;;;;;4923985;29;20028;-71
2022/05/22 04:14:41;;;;;;;15.60;4.72;;;;;;;;;;4931799;29;20135;-71
2022/05/22 04:17:07;;;;;;;10.18;3.63;;;;;;;;;;4934476;29;20051;-71
2022/05/22 04:19:33;;;;;;;11.60;3.83;;;;;;;;;;4934036;29;20347;-70
2022/05/22 04:21:59;;;;;;;13.45;3.47;;;;;;;;;;4923657;29;20028;-70
2022/05/22 04:27:10;;;;;;;16.88;4.07;;;;;;;;;;4920419;29;20086;-71
2022/05/22 04:29:37;;;;;;;16.38;4.72;;;;;;;;;;4926597;29;20028;-71
2022/05/22 04:32:04;;;;;;;22.88;6.57;;;;;;;;;;4920752;29;20056;-70
2022/05/22 04:34:30;;;;;;;25.33;6.00;;;;;;;;;;4932475;29;20122;-71
2022/05/22 04:36:57;;;;;;;24.13;6.55;;;;;;;;;;4933777;29;20031;-69
2022/05/22 04:39:23;;;;;;;32.83;7.20;;;;;;;;;;4928337;29;20079;-70
2022/05/22 04:41:49;;;;;;;24.00;6.80;;;;;;;;;;4924873;29;20046;-70
2022/05/22 04:44:15;;;;;;;29.60;7.30;;;;;;;;;;4933189;29;20028;-71
2022/05/22 04:46:41;;;;;;;45.20;7.82;;;;;;;;;;4919528;29;20142;-71
2022/05/22 04:49:08;;;;;;;32.55;8.38;;;;;;;;;;4919459;29;20024;-70
2022/05/22 04:51:34;;;;;;;35.53;6.97;;;;;;;;;;4933962;29;20031;-71
2022/05/22 04:54:00;;;;;;;38.08;6.43;;;;;;;;;;4921958;29;20031;-71
2022/05/22 04:56:26;;;;;;;39.35;7.13;;;;;;;;;;4933406;29;20046;-71
2022/05/22 04:58:53;;;;;;;58.60;8.70;;;;;;;;;;4931823;29;20028;-70
2022/05/22 05:01:19;;;;;;;14.55;5.88;;;;;;;;;;4920423;29;20036;-71
2022/05/22 05:03:45;;;;;;;12.15;5.47;;;;;;;;;;4932468;29;20103;-71
2022/05/22 05:06:11;;;;;;;20.42;6.30;;;;;;;;;;4928735;29;20086;-71
2022/05/22 05:08:38;;;;;;;20.83;6.07;;;;;;;;;;4920562;29;20024;-71
2022/05/22 05:11:04;;;;;;;23.23;6.32;;;;;;;;;;4930670;29;20035;-71
2022/05/22 05:13:31;;;;;;;20.02;5.97;;;;;;;;;;4921198;29;20095;-71
2022/05/22 05:16:04;;;;;;;17.73;6.20;;;;;;;;;;4925388;29;20035;-70
2022/05/22 05:18:31;;;;;;;26.92;5.90;;;;;;;;;;4918241;29;20525;-71
2022/05/22 05:20:59;;;;;;;17.70;6.28;;;;;;;;;;4932509;29;20036;-71
2022/05/22 05:23:25;;;;;;;17.73;6.07;;;;;;;;;;4915495;29;20075;-71
2022/05/22 05:25:51;;;;;;;16.42;5.57;;;;;;;;;;4934231;29;20035;-71
2022/05/22 05:28:17;;;;;;;15.70;5.05;;;;;;;;;;4920959;29;20066;-71
2022/05/22 05:30:44;;;;;;;17.88;4.72;;;;;;;;;;4930343;29;20075;-70
2022/05/22 05:33:10;;;;;;;35.30;5.70;;;;;;;;;;4922361;29;20032;-71
2022/05/22 05:35:36;;;;;;;15.43;5.40;;;;;;;;;;4933904;29;20055;-70
2022/05/22 05:38:03;;;;;;;11.60;4.60;;;;;;;;;;4925706;29;20417;-71
2022/05/22 05:40:29;;;;;;;13.70;5.20;;;;;;;;;;4923585;29;20031;-70
2022/05/22 05:42:55;;;;;;;19.25;5.55;;;;;;;;;;4917340;29;20028;-71
2022/05/22 05:45:21;;;;;;;12.23;4.75;;;;;;;;;;4933494;29;20106;-70
2022/05/22 05:47:48;;;;;;;17.92;4.40;;;;;;;;;;4924322;29;20482;-70
2022/05/22 05:50:22;;;;;;;13.85;4.38;;;;;;;;;;4910199;29;20392;-71
2022/05/22 05:52:52;;;;;;;31.75;5.15;;;;;;;;;;4918411;29;20079;-71
2022/05/22 05:55:18;;;;;;;46.38;4.72;;;;;;;;;;4929388;29;20489;-71
2022/05/22 05:57:44;;;;;;;35.00;5.00;;;;;;;;;;4931477;29;20060;-71
2022/05/22 06:00:13;;;;;;;17.75;4.07;;;;;;;;;;4933554;29;20512;-71
2022/05/22 06:02:39;;;;;;;28.40;4.65;;;;;;;;;;4917946;29;20582;-71
2022/05/22 06:05:05;;;;;;;18.20;4.72;;;;;;;;;;4933451;29;20035;-72
2022/05/22 06:07:31;;;;;;;18.27;4.07;;;;;;;;;;4933146;29;20492;-72
2022/05/22 06:09:58;;;;;;;18.33;4.43;;;;;;;;;;4932894;29;20023;-72
2022/05/22 06:12:24;;;;;;;41.00;5.90;;;;;;;;;;4919683;29;20079;-72
2022/05/22 06:14:51;;;;;;;40.60;5.15;;;;;;;;;;4924615;29;20493;-72
2022/05/22 06:17:17;;;;;;;22.83;4.25;;;;;;;;;;4930960;29;20062;-72
2022/05/22 06:19:57;;;;;;;29.95;4.47;;;;;;;;;;4932484;29;20059;-72
2022/05/22 06:22:23;;;;;;;30.42;5.25;;;;;;;;;;4919167;29;20084;-72
2022/05/22 06:24:50;;;;;;;44.17;5.43;;;;;;;;;;4931112;29;20452;-72
2022/05/22 06:27:16;;;;;;;29.50;4.70;;;;;;;;;;4928227;29;20437;-72
2022/05/22 06:29:43;;;;;;;21.25;4.80;;;;;;;;;;4908572;29;20028;-72
2022/05/22 06:32:11;;;;;;;36.17;5.05;;;;;;;;;;4934730;29;20019;-72
2022/05/22 06:34:41;;;;;;;24.02;4.72;;;;;;;;;;4933914;29;20028;-72
2022/05/22 06:37:08;;;;;;;35.78;5.22;;;;;;;;;;4936492;29;20405;-73
2022/05/22 06:39:50;;;;;;;58.60;7.25;;;;;;;;;;4929217;29;20028;-73
2022/05/22 06:42:24;;;;;;;13.23;4.97;;;;;;;;;;4913377;29;20039;-73
2022/05/22 06:44:51;;;;;;;;;;;;;;;;;;4934437;29;20031;-73
2022/05/22 06:47:17;;;;;;;14.10;5.03;;;;;;;;;;4922739;29;19960;-72
2022/05/22 06:49:43;;;;;;;34.67;5.78;;;;;;;;;;4922518;29;20087;-72
2022/05/22 06:52:09;;;;;;;29.58;4.68;;;;;;;;;;4928352;29;20024;-72
2022/05/22 06:54:36;;;;;;;41.65;7.07;;;;;;;;;;4935498;29;20405;-73
2022/05/22 06:57:02;;;;;;;90.90;8.00;;;;;;;;;;4932803;29;20020;-73
2022/05/22 06:59:28;;;;;;;26.98;6.40;;;;;;;;;;4923762;29;20032;-72
2022/05/22 07:01:54;;;;;;;26.40;7.10;;;;;;;;;;4925879;29;20025;-72
2022/05/22 07:04:21;;;;;;;22.48;6.32;;;;;;;;;;4934468;29;20038;-72
2022/05/22 07:06:48;;;;;;;49.45;6.45;;;;;;;;;;4934581;29;20032;-72
2022/05/22 07:09:15;;;;;;;34.50;7.20;;;;;;;;;;4935239;29;20016;-72
2022/05/22 07:11:41;;;;;;;20.48;6.32;;;;;;;;;;4927702;29;20044;-72
2022/05/22 07:14:12;;;;;;;16.90;6.43;;;;;;;;;;4932126;29;20035;-71
2022/05/22 07:16:38;;;;;;;16.50;7.00;;;;;;;;;;4919949;29;20020;-72
2022/05/22 07:19:06;;;;;;;19.75;7.53;;;;;;;;;;4932057;29;20024;-74
2022/05/22 07:21:32;;;;;;;15.30;6.18;;;;;;;;;;4922450;29;20107;-70
2022/05/22 07:23:59;;;;;;;15.25;6.50;;;;;;;;;;4931346;29;20051;-70
2022/05/22 07:26:26;;;;;;;13.43;5.53;;;;;;;;;;4921334;29;20126;-71
2022/05/22 07:28:52;;;;;;;14.13;5.35;;;;;;;;;;4933635;29;20035;-71
2022/05/22 07:31:20;;;;;;;18.73;6.22;;;;;;;;;;4913303;29;20620;-71
2022/05/22 07:33:46;;;;;;;14.98;5.45;;;;;;;;;;4913088;29;20031;-70
2022/05/22 07:36:13;;;;;;;13.48;5.75;;;;;;;;;;4935451;29;20035;-70
2022/05/22 07:38:39;;;;;;;12.75;5.60;;;;;;;;;;4932752;29;20119;-70
2022/05/22 07:41:06;;;;;;;15.50;5.30;;;;;;;;;;4932932;29;20082;-70
2022/05/22 07:43:32;;;;;;;13.70;5.50;;;;;;;;;;4934438;29;20068;-70
2022/05/22 07:45:58;;;;;;;12.48;5.93;;;;;;;;;;4924308;29;20506;-71
2022/05/22 07:48:25;;;;;;;15.45;5.90;;;;;;;;;;4929223;29;20054;-70
2022/05/22 07:50:55;;;;;;;17.30;5.68;;;;;;;;;;4933203;29;20038;-70
2022/05/22 07:53:21;;;;;;;14.77;6.30;;;;;;;;;;4924845;29;20027;-70
2022/05/22 07:55:47;;;;;;;16.27;6.63;;;;;;;;;;4929987;29;20689;-70
2022/05/22 07:58:13;;;;;;;14.15;5.80;;;;;;;;;;4931730;29;20027;-70
2022/05/22 08:00:39;;;;;;;18.13;7.30;;;;;;;;;;4934537;29;20055;-71
2022/05/22 08:03:13;;;;;;;17.25;5.85;;;;;;;;;;4922131;29;20476;-70
2022/05/22 08:05:40;;;;;;;16.35;5.80;;;;;;;;;;4935292;29;20115;-70
2022/05/22 08:08:07;;;;;;;14.80;5.25;;;;;;;;;;4934370;29;20040;-70
2022/05/22 08:10:33;;;;;;;14.60;4.68;;;;;;;;;;4934964;29;20488;-70
2022/05/22 08:13:00;;;;;;;12.40;4.53;;;;;;;;;;4920883;29;20035;-70
2022/05/22 08:15:30;;;;;;;12.15;4.72;;;;;;;;;;4934065;29;20046;-70
2022/05/22 08:17:56;;;;;;;14.38;4.72;;;;;;;;;;4924485;29;20028;-70
2022/05/22 08:20:22;;;;;;;11.18;4.50;;;;;;;;;;4931609;29;20036;-70
2022/05/22 08:22:54;;;;;;;12.75;4.72;;;;;;;;;;4931548;29;20042;-70
2022/05/22 08:25:20;;;;;;;13.48;4.47;;;;;;;;;;4934787;29;20114;-70
2022/05/22 08:27:47;;;;;;;15.13;4.63;;;;;;;;;;4931067;29;20038;-70
2022/05/22 08:30:15;;;;;;;16.10;6.28;;;;;;;;;;4926844;29;20927;-71
2022/05/22 08:32:42;;;;;;;13.55;4.82;;;;;;;;;;4920812;29;20047;-71
2022/05/22 08:35:10;;;;;;;15.43;4.85;;;;;;;;;;4934406;29;20036;-69
2022/05/22 08:37:36;;;;;;;10.00;3.88;;;;;;;;;;4933345;29;20028;-71
2022/05/22 08:40:04;;;;;;;14.43;4.32;;;;;;;;;;4933481;29;20039;-70
2022/05/22 08:42:36;;;;;;;10.75;4.35;;;;;;;;;;4933529;29;20039;-70
2022/05/22 08:45:06;;;;;;;10.95;3.90;;;;;;;;;;4934335;29;20032;-72
2022/05/22 08:47:38;;;;;;;12.20;3.67;;;;;;;;;;4923855;29;20028;-71
2022/05/22 08:50:05;;;;;;;12.90;3.67;;;;;;;;;;4915481;29;20032;-72
2022/05/22 08:52:43;;;;;;;11.95;3.30;;;;;;;;;;4924670;29;20851;-72
2022/05/22 08:55:14;;;;;;;11.70;2.83;;;;;;;;;;4933709;29;20102;-72
2022/05/22 09:00:40;;;;;;;12.00;3.13;;;;;;;;;;4934235;29;20087;-70
2022/05/22 09:03:07;;;;;;;12.85;3.22;;;;;;;;;;4930888;29;20035;-71
2022/05/22 09:05:35;;;;;;;15.07;3.25;;;;;;;;;;4928681;29;20477;-70
2022/05/22 09:08:02;;;;;;;11.32;3.20;;;;;;;;;;4932566;29;20031;-71
2022/05/22 09:10:46;;;;;;;12.30;3.00;;;;;;;;;;4934066;29;20040;-71
2022/05/22 09:13:15;;;;;;;13.48;2.67;;;;;;;;;;4932737;29;20062;-70
2022/05/22 09:15:57;;;;;;;11.77;3.10;;;;;;;;;;4932499;29;20036;-69
2022/05/22 09:18:31;;;;;;;11.40;2.53;;;;;;;;;;4931983;29;20027;-70
2022/05/22 09:20:58;;;;;;;18.65;3.40;;;;;;;;;;4929542;29;20094;-70
2022/05/22 09:23:30;;;;;;;10.25;2.80;;;;;;;;;;4931389;29;20051;-70
2022/05/22 09:26:10;;;;;;;11.55;2.83;;;;;;;;;;4931515;29;20046;-70
2022/05/22 09:28:54;;;;;;;11.05;2.70;;;;;;;;;;4926594;29;20039;-69
2022/05/22 09:31:28;;;;;;;8.98;2.10;;;;;;;;;;4932842;29;21609;-69
2022/05/22 09:34:13;;;;;;;10.85;2.40;;;;;;;;;;4913279;29;20036;-70
2022/05/22 09:36:46;;;;;;;10.43;2.28;;;;;;;;;;4914749;29;20036;-69
2022/05/22 09:39:12;;;;;;;;;;;;;;;;;;4923964;29;20171;-69
2022/05/22 09:41:44;;;;;;;12.77;2.40;;;;;;;;;;4934028;29;19911;-69
2022/05/22 09:44:17;;;;;;;8.63;2.28;;;;;;;;;;4931308;29;20027;-69
2022/05/22 09:46:43;;;;;;;;;;;;;;;;;;4932532;29;20046;-70
2022/05/22 09:49:28;;;;;;;6.43;2.05;;;;;;;;;;4933123;29;20284;-69
2022/05/22 09:52:06;;;;;;;10.70;2.40;;;;;;;;;;4933417;29;20023;-69
2022/05/22 09:54:35;;;;;;;8.48;2.03;;;;;;;;;;4931888;29;20074;-70
2022/05/22 09:57:01;;;;;;;10.98;2.25;;;;;;;;;;4929281;29;20036;-69
2022/05/22 09:59:27;;;;;;;12.25;2.15;;;;;;;;;;4931875;29;20021;-69
2022/05/22 10:01:55;;;;;;;5.90;1.83;;;;;;;;;;4930239;29;20028;-69
2022/05/22 10:04:30;;;;;;;9.48;2.30;;;;;;;;;;4932215;29;20477;-70
2022/05/22 10:07:10;;;;;;;9.93;1.75;;;;;;;;;;4934650;29;20047;-68
2022/05/22 10:09:44;;;;;;;8.88;1.75;;;;;;;;;;4936793;29;20500;-69
2022/05/22 10:12:29;;;;;;;8.00;1.77;;;;;;;;;;4932076;29;20035;-67
2022/05/22 10:14:59;;;;;;;9.43;2.00;;;;;;;;;;4929177;29;20071;-68
2022/05/22 10:17:34;;;;;;;11.35;2.45;;;;;;;;;;4935240;29;20074;-68
2022/05/22 10:20:06;;;;;;;8.90;2.30;;;;;;;;;;4936140;29;20437;-68
2022/05/22 10:22:32;;;;;;;7.43;1.55;;;;;;;;;;4933990;29;20059;-68
2022/05/22 10:25:09;;;;;;;9.25;2.13;;;;;;;;;;4936746;29;20039;-68
2022/05/22 10:27:41;;;;;;;7.70;2.10;;;;;;;;;;4935690;29;20499;-68
2022/05/22 10:30:12;;;;;;;9.52;1.92;;;;;;;;;;4930648;29;20046;-67
2022/05/22 10:32:44;;;;;;;6.13;1.60;;;;;;;;;;4934738;29;20024;-68
2022/05/22 10:35:34;;;;;;;7.50;1.70;;;;;;;;;;4936536;29;20118;-68
2022/05/22 10:38:03;;;;;;;5.35;1.38;;;;;;;;;;4936871;29;20508;-69
2022/05/22 10:43:18;;;;;;;7.28;1.60;;;;;;;;;;4897514;29;20035;-68
2022/05/22 10:45:45;;;;;;;4.75;0.90;;;;;;;;;;4932213;29;20628;-68
2022/05/22 10:48:19;;;;;;;5.85;0.90;;;;;;;;;;4933612;29;20051;-68
2022/05/22 10:50:56;;;;;;;3.38;0.90;;;;;;;;;;4934780;29;20441;-68
2022/05/22 10:53:30;;;;;;;4.82;0.82;;;;;;;;;;4934970;29;20037;-68
2022/05/22 10:56:01;;;;;;;4.15;0.70;;;;;;;;;;4935291;29;20047;-68
2022/05/22 10:58:29;;;;;;;4.45;0.90;;;;;;;;;;4935550;29;20087;-68
2022/05/22 11:00:58;;;;;;;3.40;0.85;;;;;;;;;;4934602;29;20039;-68
2022/05/22 11:03:26;;;;;;;3.13;0.82;;;;;;;;;;4930317;29;20031;-68
2022/05/22 11:05:53;;;;;;;2.65;0.60;;;;;;;;;;4935725;29;20042;-70
2022/05/22 11:08:28;;;;;;;2.63;0.73;;;;;;;;;;4917609;29;20111;-68
2022/05/22 11:10:54;;;;;;;2.65;0.88;;;;;;;;;;4936022;29;20150;-68
2022/05/22 11:13:22;;;;;;;2.67;0.80;;;;;;;;;;4935928;29;20055;-68
2022/05/22 11:15:48;;;;;;;2.80;1.00;;;;;;;;;;4933154;29;20098;-68
2022/05/22 11:18:21;;;;;;;2.70;0.60;;;;;;;;;;4931908;29;20041;-68
2022/05/22 11:21:11;;;;;;;1.83;0.57;;;;;;;;;;4930671;29;20114;-69
2022/05/22 11:23:42;;;;;;;4.60;0.73;;;;;;;;;;4935179;29;20074;-69
2022/05/22 11:26:29;;;;;;;2.40;0.60;;;;;;;;;;4934502;29;20082;-69
2022/05/22 11:28:58;;;;;;;2.30;0.55;;;;;;;;;;4932251;29;20019;-68
2022/05/22 11:31:32;;;;;;;3.42;0.63;;;;;;;;;;4933293;29;20462;-68
2022/05/22 11:33:58;;;;;;;2.38;0.47;;;;;;;;;;4934858;29;20514;-68
2022/05/22 11:36:37;;;;;;;3.40;0.70;;;;;;;;;;4934469;29;20114;-68
2022/05/22 11:39:22;;;;;;;4.18;0.70;;;;;;;;;;4934036;29;20059;-68
2022/05/22 11:41:50;;;;;;;2.72;0.60;;;;;;;;;;4933544;29;20488;-67
2022/05/22 11:44:41;;;;;;;3.35;0.65;;;;;;;;;;4933199;29;20071;-68
2022/05/22 11:47:19;;;;;;;3.65;0.70;;;;;;;;;;4934289;29;20039;-67
2022/05/22 11:49:55;;;;;;;3.75;0.63;;;;;;;;;;4932432;29;20585;-68
2022/05/22 11:55:11;;;;;;;4.93;0.95;;;;;;;;;;4921364;29;20067;-69
2022/05/22 11:57:40;;;;;;;2.97;0.70;;;;;;;;;;4929203;29;20035;-69
2022/05/22 12:00:08;;;;;;;2.03;0.77;;;;;;;;;;4934072;29;20087;-68
2022/05/22 12:02:42;;;;;;;3.10;0.70;;;;;;;;;;4932862;29;20504;-68
2022/05/22 12:05:17;;;;;;;4.25;0.85;;;;;;;;;;4933283;29;20031;-68
2022/05/22 12:07:58;;;;;;;4.22;0.70;;;;;;;;;;4924381;29;20740;-68
2022/05/22 12:10:30;;;;;;;2.45;0.50;;;;;;;;;;4933681;29;20046;-69
2022/05/22 12:13:02;;;;;;;2.38;0.50;;;;;;;;;;4930007;29;20024;-68
2022/05/22 12:15:43;;;;;;;3.00;0.60;;;;;;;;;;4932254;29;20051;-69
2022/05/22 12:18:28;;;;;;;3.88;0.30;;;;;;;;;;4933677;29;20489;-68
2022/05/22 12:21:00;;;;;;;1.45;0.40;;;;;;;;;;4933336;29;20043;-68
2022/05/22 12:23:28;;;;;;;1.50;0.40;;;;;;;;;;4929308;29;20051;-69
2022/05/22 12:25:56;;;;;;;2.15;0.50;;;;;;;;;;4932215;29;20031;-68
2022/05/22 12:28:22;;;;;;;6.10;0.80;;;;;;;;;;4918318;29;20222;-68
2022/05/22 12:30:48;;;;;;;2.42;0.60;;;;;;;;;;4914912;29;20096;-69
2022/05/22 12:33:15;;;;;;;2.05;0.40;;;;;;;;;;4914028;29;20422;-69
2022/05/22 12:35:42;;;;;;;2.60;0.57;;;;;;;;;;4915477;29;20036;-68
2022/05/22 12:38:10;;;;;;;2.58;0.40;;;;;;;;;;4915332;29;20461;-68
2022/05/22 12:40:46;;;;;;;1.67;0.47;;;;;;;;;;4915613;29;20059;-68
2022/05/22 12:43:14;;;;;;;1.23;0.50;;;;;;;;;;4915457;29;20601;-68
2022/05/22 12:45:41;;;;;;;3.80;0.60;;;;;;;;;;4915669;29;20401;-69
2022/05/22 12:48:10;;;;;;;1.23;0.52;;;;;;;;;;4915231;29;20039;-68
2022/05/22 12:50:36;;;;;;;2.53;0.68;;;;;;;;;;4915118;29;20382;-69
2022/05/22 12:53:02;;;;;;;2.28;0.50;;;;;;;;;;4915025;29;20035;-68
2022/05/22 12:55:33;;;;;;;1.50;0.60;;;;;;;;;;4914885;29;20036;-68
2022/05/22 12:58:01;;;;;;;1.90;0.50;;;;;;;;;;4915087;29;20047;-68
2022/05/22 13:00:36;;;;;;;2.03;0.50;;;;;;;;;;4914817;29;20032;-68
2022/05/22 13:03:15;;;;;;;1.15;0.47;;;;;;;;;;4915112;29;20032;-68
2022/05/22 13:05:42;;;;;;;1.75;0.50;;;;;;;;;;4914830;29;20061;-68
2022/05/22 13:08:20;;;;;;;4.47;0.63;;;;;;;;;;4918130;29;20382;-68
2022/05/22 13:10:50;;;;;;;2.38;0.60;;;;;;;;;;4933754;29;20054;-68
2022/05/22 13:13:24;;;;;;;2.10;0.30;;;;;;;;;;4933532;29;20024;-68
2022/05/22 13:15:53;;;;;;;1.83;0.50;;;;;;;;;;4933234;29;20047;-68
2022/05/22 13:18:19;;;;;;;2.15;0.50;;;;;;;;;;4916242;29;20373;-68
2022/05/22 13:20:46;;;;;;;3.40;0.60;;;;;;;;;;4933074;29;20032;-69
2022/05/22 13:23:13;;;;;;;1.05;0.47;;;;;;;;;;4933380;29;20066;-68
2022/05/22 13:25:42;;;;;;;2.95;0.52;;;;;;;;;;4916578;29;20381;-69
2022/05/22 13:28:27;;;;;;;2.05;0.52;;;;;;;;;;4933647;29;20031;-69
2022/05/22 13:30:57;;;;;;;1.38;0.40;;;;;;;;;;4933616;29;20031;-68
2022/05/22 13:33:24;;;;;;;1.58;0.52;;;;;;;;;;4933651;29;20023;-68
2022/05/22 13:36:01;;;;;;;2.78;0.55;;;;;;;;;;4932746;29;20051;-68
2022/05/22 13:38:29;;;;;;;2.08;0.65;;;;;;;;;;4931922;29;20390;-69
2022/05/22 13:41:06;;;;;;;2.05;0.40;;;;;;;;;;4932503;29;20532;-68
2022/05/22 13:44:03;;;;;;;4.82;0.52;;;;;;;;;;4933696;29;20036;-69
2022/05/22 13:46:48;;;;;;;2.38;0.47;;;;;;;;;;4933151;29;20031;-68
2022/05/22 13:49:33;;;;;;;2.00;0.60;;;;;;;;;;4933323;29;20110;-68
2022/05/22 13:54:52;;;;;;;4.13;0.80;;;;;;;;;;4932746;29;20055;-68
2022/05/22 13:57:23;;;;;;;1.92;0.52;;;;;;;;;;4916199;29;20044;-68
2022/05/22 13:59:57;;;;;;;1.90;0.43;;;;;;;;;;4933266;29;20027;-68
2022/05/22 14:02:25;;;;;;;5.55;0.60;;;;;;;;;;4933349;29;20034;-68
2022/05/22 14:04:52;;;;;;;1.55;0.47;;;;;;;;;;4929925;29;20394;-68
2022/05/22 14:07:21;;;;;;;2.40;0.80;;;;;;;;;;4931943;29;20031;-68
2022/05/22 14:09:52;;;;;;;2.53;0.88;;;;;;;;;;4929162;29;20247;-69
2022/05/22 14:12:24;;;;;;;3.25;0.70;;;;;;;;;;4914088;29;20082;-69
2022/05/22 14:14:50;;;;;;;2.13;0.60;;;;;;;;;;4914318;29;20032;-70
2022/05/22 14:17:27;;;;;;;3.45;0.60;;;;;;;;;;4920713;29;20058;-69
2022/05/22 14:20:03;;;;;;;2.50;0.60;;;;;;;;;;4933399;29;20035;-69
2022/05/22 14:22:29;;;;;;;2.97;0.52;;;;;;;;;;4933113;29;20024;-69
2022/05/22 14:25:00;;;;;;;1.50;0.50;;;;;;;;;;4931823;29;20420;-69
2022/05/22 14:27:34;;;;;;;1.67;0.60;;;;;;;;;;4931056;29;20027;-68
2022/05/22 14:30:15;;;;;;;2.95;0.60;;;;;;;;;;4929552;29;20488;-68
2022/05/22 14:32:42;;;;;;;2.95;0.60;;;;;;;;;;4930789;29;20075;-69
2022/05/22 14:35:31;;;;;;;2.08;0.60;;;;;;;;;;4933231;29;20095;-70
2022/05/22 14:37:58;;;;;;;2.38;0.75;;;;;;;;;;4926739;29;20043;-69
2022/05/22 14:40:29;;;;;;;2.25;0.60;;;;;;;;;;4931499;29;20032;-69
2022/05/22 14:42:57;;;;;;;1.60;0.55;;;;;;;;;;4930577;29;20533;-70
2022/05/22 14:45:31;;;;;;;2.22;0.70;;;;;;;;;;4927870;29;20084;-70
2022/05/22 14:47:59;;;;;;;1.13;0.60;;;;;;;;;;4919673;29;20036;-69
2022/05/22 14:50:26;;;;;;;3.20;0.50;;;;;;;;;;4914257;29;20024;-69
2022/05/22 14:52:58;;;;;;;2.03;0.40;;;;;;;;;;4934481;29;20103;-70
2022/05/22 14:55:29;;;;;;;2.40;0.50;;;;;;;;;;4906458;29;20046;-68
2022/05/22 14:58:12;;;;;;;1.45;0.50;;;;;;;;;;4936170;29;20433;-68
2022/05/22 15:00:43;;;;;;;2.22;0.68;;;;;;;;;;4934176;29;20043;-68
2022/05/22 15:03:12;;;;;;;1.90;0.50;;;;;;;;;;4931891;29;20388;-69
2022/05/22 15:05:41;;;;;;;1.30;0.50;;;;;;;;;;4933681;29;20028;-69
2022/05/22 15:08:09;;;;;;;2.65;0.43;;;;;;;;;;4934661;29;20027;-68
2022/05/22 15:10:37;;;;;;;2.85;0.80;;;;;;;;;;4934531;29;20043;-69